createdAt,value
2023-05-25T00:00:01.130Z,1022.41
2023-05-25T00:01:03.974Z,1022.42
2023-05-25T00:02:00.243Z,1022.43
2023-05-25T00:03:00.511Z,1022.46
2023-05-25T00:04:00.756Z,1022.46
2023-05-25T00:05:01.167Z,1022.47
2023-05-25T00:06:07.776Z,1022.46
2023-05-25T00:07:01.795Z,1022.51
2023-05-25T00:08:02.726Z,1022.46
2023-05-25T00:09:01.780Z,1022.51
2023-05-25T00:10:01.092Z,1022.52
2023-05-25T00:11:11.992Z,1022.45
2023-05-25T00:12:01.075Z,1022.49
2023-05-25T00:13:01.100Z,1022.45
2023-05-25T00:14:01.450Z,1022.47
2023-05-25T00:15:01.581Z,1022.42
2023-05-25T00:16:14.108Z,1022.47
2023-05-25T00:17:01.068Z,1022.46
2023-05-25T00:18:01.836Z,1022.45
2023-05-25T00:19:01.151Z,1022.47
2023-05-25T00:20:01.565Z,1022.47
2023-05-25T00:21:16.677Z,1022.47
2023-05-25T00:22:01.049Z,1022.49
2023-05-25T00:23:01.087Z,1022.46
2023-05-25T00:24:01.080Z,1022.44
2023-05-25T00:25:01.069Z,1022.44
2023-05-25T00:26:01.066Z,1022.49
2023-05-25T00:27:01.041Z,1022.45
2023-05-25T00:28:01.022Z,1022.46
2023-05-25T00:29:01.486Z,1022.46
2023-05-25T00:30:01.010Z,1022.48
2023-05-25T00:31:01.066Z,1022.43
2023-05-25T00:32:01.754Z,1022.51
2023-05-25T00:33:01.881Z,1022.47
2023-05-25T00:34:01.764Z,1022.48
2023-05-25T00:35:01.356Z,1022.46
2023-05-25T00:36:01.047Z,1022.48
2023-05-25T00:37:01.429Z,1022.48
2023-05-25T00:38:02.729Z,1022.46
2023-05-25T00:39:01.120Z,1022.45
2023-05-25T00:40:01.067Z,1022.49
2023-05-25T00:41:01.074Z,1022.46
2023-05-25T00:42:01.055Z,1022.53
2023-05-25T00:43:01.078Z,1022.53
2023-05-25T00:44:01.087Z,1022.54
2023-05-25T00:45:01.096Z,1022.56
2023-05-25T00:46:01.167Z,1022.53
2023-05-25T00:47:02.250Z,1022.56
2023-05-25T00:48:01.141Z,1022.58
2023-05-25T00:49:01.414Z,1022.62
2023-05-25T00:50:02.136Z,1022.6
2023-05-25T00:51:02.095Z,1022.64
2023-05-25T00:52:01.037Z,1022.62
2023-05-25T00:53:01.037Z,1022.61
2023-05-25T00:54:01.061Z,1022.66
2023-05-25T00:55:01.043Z,1022.61
2023-05-25T00:56:01.088Z,1022.6
2023-05-25T00:57:01.440Z,1022.59
2023-05-25T00:58:01.354Z,1022.61
2023-05-25T00:59:00.977Z,1022.66
2023-05-25T01:00:01.099Z,1022.64
2023-05-25T01:01:01.098Z,1022.68
2023-05-25T01:02:01.142Z,1022.66
2023-05-25T01:03:01.208Z,1022.67
2023-05-25T01:04:01.828Z,1022.69
2023-05-25T01:05:01.515Z,1022.66
2023-05-25T01:06:02.562Z,1022.67
2023-05-25T01:07:01.136Z,1022.7
2023-05-25T01:08:01.044Z,1022.76
2023-05-25T01:09:01.075Z,1022.75
2023-05-25T01:10:01.098Z,1022.74
2023-05-25T01:11:01.048Z,1022.76
2023-05-25T01:12:01.106Z,1022.78
2023-05-25T01:13:01.480Z,1022.77
2023-05-25T01:14:00.813Z,1022.75
2023-05-25T01:15:01.082Z,1022.78
2023-05-25T01:16:01.102Z,1022.75
2023-05-25T01:17:01.054Z,1022.81
2023-05-25T01:18:01.111Z,1022.78
2023-05-25T01:19:01.116Z,1022.77
2023-05-25T01:20:09.492Z,1022.78
2023-05-25T01:21:01.849Z,1022.81
2023-05-25T01:22:01.504Z,1022.79
2023-05-25T01:23:01.225Z,1022.81
2023-05-25T01:24:01.036Z,1022.8
2023-05-25T01:25:01.034Z,1022.81
2023-05-25T01:26:01.061Z,1022.79
2023-05-25T01:27:01.427Z,1022.8
2023-05-25T01:28:01.017Z,1022.75
2023-05-25T01:29:01.024Z,1022.78
2023-05-25T01:30:01.067Z,1022.76
2023-05-25T01:31:01.179Z,1022.74
2023-05-25T01:32:01.944Z,1022.72
2023-05-25T01:33:03.359Z,1022.76
2023-05-25T01:34:02.066Z,1022.7
2023-05-25T01:35:04.594Z,1022.74
2023-05-25T01:36:01.116Z,1022.74
2023-05-25T01:37:04.482Z,1022.74
2023-05-25T01:38:01.145Z,1022.75
2023-05-25T01:39:01.235Z,1022.73
2023-05-25T01:40:01.740Z,1022.79
2023-05-25T01:41:01.847Z,1022.75
2023-05-25T01:42:06.036Z,1022.72
2023-05-25T01:43:01.557Z,1022.69
2023-05-25T01:44:01.121Z,1022.67
2023-05-25T01:45:01.100Z,1022.65
2023-05-25T01:46:01.503Z,1022.72
2023-05-25T01:47:08.234Z,1022.75
2023-05-25T01:48:01.484Z,1022.74
2023-05-25T01:49:00.823Z,1022.76
2023-05-25T01:50:00.523Z,1022.73
2023-05-25T01:51:00.277Z,1022.71
2023-05-25T01:52:09.857Z,1022.64
2023-05-25T01:53:01.109Z,1022.68
2023-05-25T01:54:01.435Z,1022.72
2023-05-25T01:55:01.145Z,1022.66
2023-05-25T01:56:01.100Z,1022.7
2023-05-25T01:57:13.946Z,1022.71
2023-05-25T01:58:01.553Z,1022.69
2023-05-25T01:59:01.059Z,1022.71
2023-05-25T02:00:01.041Z,1022.71
2023-05-25T02:01:02.139Z,1022.7
2023-05-25T02:02:16.436Z,1022.68
2023-05-25T02:03:02.239Z,1022.74
2023-05-25T02:04:01.008Z,1022.74
2023-05-25T02:05:01.093Z,1022.67
2023-05-25T02:06:01.161Z,1022.71
2023-05-25T02:07:01.930Z,1022.7
2023-05-25T02:08:01.152Z,1022.72
2023-05-25T02:09:00.630Z,1022.71
2023-05-25T02:10:00.218Z,1022.69
2023-05-25T02:10:59.955Z,1022.69
2023-05-25T02:11:59.583Z,1022.7
2023-05-25T02:13:02.151Z,1022.69
2023-05-25T02:14:02.814Z,1022.68
2023-05-25T02:15:01.059Z,1022.7
2023-05-25T02:16:01.095Z,1022.69
2023-05-25T02:17:01.025Z,1022.69
2023-05-25T02:18:01.242Z,1022.71
2023-05-25T02:19:01.403Z,1022.65
2023-05-25T02:20:01.327Z,1022.68
2023-05-25T02:21:02.094Z,1022.63
2023-05-25T02:22:02.306Z,1022.68
2023-05-25T02:23:01.101Z,1022.67
2023-05-25T02:24:01.045Z,1022.66
2023-05-25T02:25:01.054Z,1022.69
2023-05-25T02:26:01.237Z,1022.69
2023-05-25T02:27:01.164Z,1022.68
2023-05-25T02:28:01.080Z,1022.74
2023-05-25T02:29:00.780Z,1022.74
2023-05-25T02:30:00.331Z,1022.75
2023-05-25T02:30:59.914Z,1022.74
2023-05-25T02:31:59.514Z,1022.72
2023-05-25T02:33:01.806Z,1022.69
2023-05-25T02:34:00.991Z,1022.7
2023-05-25T02:35:01.072Z,1022.75
2023-05-25T02:36:01.078Z,1022.71
2023-05-25T02:37:01.112Z,1022.77
2023-05-25T02:38:01.442Z,1022.71
2023-05-25T02:39:01.146Z,1022.71
2023-05-25T02:40:01.161Z,1022.69
2023-05-25T02:41:01.817Z,1022.71
2023-05-25T02:42:01.779Z,1022.69
2023-05-25T02:43:01.442Z,1022.7
2023-05-25T02:44:01.018Z,1022.69
2023-05-25T02:45:00.728Z,1022.68
2023-05-25T02:46:00.718Z,1022.73
2023-05-25T02:47:00.510Z,1022.69
2023-05-25T02:48:00.372Z,1022.7
2023-05-25T02:49:00.031Z,1022.7
2023-05-25T02:49:59.577Z,1022.69
2023-05-25T02:51:01.746Z,1022.64
2023-05-25T02:52:01.090Z,1022.69
2023-05-25T02:53:01.344Z,1022.68
2023-05-25T02:54:02.000Z,1022.66
2023-05-25T02:55:01.964Z,1022.71
2023-05-25T02:56:01.787Z,1022.7
2023-05-25T02:57:01.122Z,1022.67
2023-05-25T02:58:01.132Z,1022.69
2023-05-25T02:59:01.031Z,1022.72
2023-05-25T03:00:01.044Z,1022.7
2023-05-25T03:01:01.179Z,1022.68
2023-05-25T03:02:01.964Z,1022.73
2023-05-25T03:03:01.228Z,1022.72
2023-05-25T03:04:01.194Z,1022.72
2023-05-25T03:05:03.835Z,1022.72
2023-05-25T03:06:01.350Z,1022.75
2023-05-25T03:07:01.837Z,1022.78
2023-05-25T03:08:02.099Z,1022.78
2023-05-25T03:09:01.740Z,1022.76
2023-05-25T03:10:01.118Z,1022.78
2023-05-25T03:11:01.138Z,1022.81
2023-05-25T03:12:01.017Z,1022.75
2023-05-25T03:13:01.507Z,1022.78
2023-05-25T03:14:01.500Z,1022.81
2023-05-25T03:15:01.063Z,1022.83
2023-05-25T03:16:01.046Z,1022.81
2023-05-25T03:17:01.191Z,1022.8
2023-05-25T03:18:01.113Z,1022.81
2023-05-25T03:19:01.036Z,1022.84
2023-05-25T03:20:01.084Z,1022.86
2023-05-25T03:21:01.072Z,1022.81
2023-05-25T03:22:01.062Z,1022.81
2023-05-25T03:23:03.410Z,1022.8
2023-05-25T03:24:01.851Z,1022.79
2023-05-25T03:25:01.111Z,1022.85
2023-05-25T03:26:01.790Z,1022.83
2023-05-25T03:27:01.491Z,1022.82
2023-05-25T03:28:07.628Z,1022.86
2023-05-25T03:29:01.103Z,1022.87
2023-05-25T03:30:01.057Z,1022.88
2023-05-25T03:31:01.034Z,1022.87
2023-05-25T03:32:01.068Z,1022.92
2023-05-25T03:33:11.277Z,1022.9
2023-05-25T03:34:01.851Z,1022.89
2023-05-25T03:35:02.545Z,1022.88
2023-05-25T03:36:01.494Z,1022.9
2023-05-25T03:37:01.071Z,1022.9
2023-05-25T03:38:13.396Z,1022.84
2023-05-25T03:39:00.668Z,1022.87
2023-05-25T03:40:00.330Z,1022.88
2023-05-25T03:40:59.899Z,1022.85
2023-05-25T03:41:59.449Z,1022.87
2023-05-25T03:43:16.373Z,1022.9
2023-05-25T03:44:01.044Z,1022.92
2023-05-25T03:45:00.712Z,1022.94
2023-05-25T03:46:00.262Z,1022.97
2023-05-25T03:46:59.897Z,1022.93
2023-05-25T03:47:59.515Z,1022.95
2023-05-25T03:49:01.073Z,1022.94
2023-05-25T03:50:01.017Z,1022.95
2023-05-25T03:51:01.054Z,1022.94
2023-05-25T03:52:01.060Z,1023.01
2023-05-25T03:53:01.081Z,1023.04
2023-05-25T03:54:01.194Z,1023.03
2023-05-25T03:55:01.044Z,1023.03
2023-05-25T03:56:01.099Z,1023.04
2023-05-25T03:57:01.122Z,1023.05
2023-05-25T03:58:01.106Z,1023.02
2023-05-25T03:59:01.100Z,1023.01
2023-05-25T04:00:01.289Z,1022.99
2023-05-25T04:01:04.362Z,1022.99
2023-05-25T04:02:01.021Z,1023.07
2023-05-25T04:03:00.902Z,1023.05
2023-05-25T04:04:00.790Z,1023.04
2023-05-25T04:05:00.530Z,1023.06
2023-05-25T04:06:00.225Z,1023.06
2023-05-25T04:06:59.920Z,1023.07
2023-05-25T04:07:59.642Z,1023.1
2023-05-25T04:09:01.749Z,1023.08
2023-05-25T04:10:01.433Z,1023.1
2023-05-25T04:11:01.108Z,1023.1
2023-05-25T04:12:01.099Z,1023.08
2023-05-25T04:13:01.092Z,1023.06
2023-05-25T04:14:01.297Z,1023.04
2023-05-25T04:15:01.113Z,1023.06
2023-05-25T04:16:01.039Z,1023.02
2023-05-25T04:17:01.014Z,1023.05
2023-05-25T04:18:01.197Z,1023.03
2023-05-25T04:19:01.520Z,1023.02
2023-05-25T04:20:01.081Z,1023
2023-05-25T04:21:01.049Z,1022.98
2023-05-25T04:22:01.035Z,1022.99
2023-05-25T04:23:03.200Z,1023.02
2023-05-25T04:24:01.067Z,1023.01
2023-05-25T04:25:01.009Z,1022.99
2023-05-25T04:26:01.066Z,1023.06
2023-05-25T04:27:05.098Z,1023.08
2023-05-25T04:28:01.431Z,1023.05
2023-05-25T04:29:02.333Z,1023.04
2023-05-25T04:30:01.714Z,1023.08
2023-05-25T04:31:01.538Z,1023.02
2023-05-25T04:32:01.331Z,1023.09
2023-05-25T04:33:01.185Z,1023.1
2023-05-25T04:34:01.131Z,1023.08
2023-05-25T04:35:01.083Z,1023.08
2023-05-25T04:36:01.748Z,1023.14
2023-05-25T04:37:01.928Z,1023.11
2023-05-25T04:38:01.837Z,1023.08
2023-05-25T04:39:01.069Z,1023.1
2023-05-25T04:40:01.060Z,1023.02
2023-05-25T04:41:02.394Z,1022.98
2023-05-25T04:42:01.136Z,1023.01
2023-05-25T04:43:01.114Z,1023.01
2023-05-25T04:44:06.964Z,1023.02
2023-05-25T04:45:00.887Z,1023.02
2023-05-25T04:46:01.301Z,1023.05
2023-05-25T04:47:01.814Z,1023.06
2023-05-25T04:48:02.109Z,1023.09
2023-05-25T04:49:01.584Z,1023.1
2023-05-25T04:50:01.742Z,1023.13
2023-05-25T04:51:01.218Z,1023.09
2023-05-25T04:52:02.084Z,1023.09
2023-05-25T04:53:01.971Z,1023.1
2023-05-25T04:54:01.622Z,1023.11
2023-05-25T04:55:01.069Z,1023.08
2023-05-25T04:56:01.064Z,1023.09
2023-05-25T04:57:01.362Z,1023.09
2023-05-25T04:58:01.084Z,1023.11
2023-05-25T04:59:05.103Z,1023.14
2023-05-25T05:00:01.088Z,1023.2
2023-05-25T05:01:01.088Z,1023.15
2023-05-25T05:02:01.354Z,1023.15
2023-05-25T05:03:01.529Z,1023.12
2023-05-25T05:04:07.760Z,1023.17
2023-05-25T05:05:01.450Z,1023.16
2023-05-25T05:06:01.114Z,1023.19
2023-05-25T05:07:01.671Z,1023.16
2023-05-25T05:08:01.036Z,1023.17
2023-05-25T05:09:11.539Z,1023.15
2023-05-25T05:10:01.730Z,1023.15
2023-05-25T05:11:01.709Z,1023.1
2023-05-25T05:12:01.472Z,1023.08
2023-05-25T05:13:01.267Z,1023.1
2023-05-25T05:14:14.661Z,1023.14
2023-05-25T05:15:02.045Z,1023.16
2023-05-25T05:16:02.037Z,1023.13
2023-05-25T05:17:01.767Z,1023.18
2023-05-25T05:18:02.024Z,1023.15
2023-05-25T05:19:01.365Z,1023.14
2023-05-25T05:20:01.158Z,1023.15
2023-05-25T05:21:01.220Z,1023.18
2023-05-25T05:22:01.226Z,1023.17
2023-05-25T05:23:01.738Z,1023.16
2023-05-25T05:24:01.427Z,1023.19
2023-05-25T05:25:01.044Z,1023.22
2023-05-25T05:26:01.048Z,1023.23
2023-05-25T05:27:03.996Z,1023.2
2023-05-25T05:28:01.655Z,1023.16
2023-05-25T05:29:01.783Z,1023.2
2023-05-25T05:30:01.096Z,1023.24
2023-05-25T05:31:02.181Z,1023.29
2023-05-25T05:32:02.106Z,1023.3
2023-05-25T05:33:04.611Z,1023.31
2023-05-25T05:34:02.185Z,1023.34
2023-05-25T05:35:01.316Z,1023.34
2023-05-25T05:36:01.118Z,1023.35
2023-05-25T05:37:01.112Z,1023.33
2023-05-25T05:38:01.117Z,1023.38
2023-05-25T05:39:01.515Z,1023.34
2023-05-25T05:40:01.228Z,1023.36
2023-05-25T05:41:01.451Z,1023.38
2023-05-25T05:42:04.418Z,1023.32
2023-05-25T05:43:02.878Z,1023.33
2023-05-25T05:44:01.080Z,1023.34
2023-05-25T05:45:00.722Z,1023.36
2023-05-25T05:46:00.363Z,1023.34
2023-05-25T05:47:01.409Z,1023.35
2023-05-25T05:48:01.127Z,1023.36
2023-05-25T05:49:01.592Z,1023.35
2023-05-25T05:50:01.493Z,1023.39
2023-05-25T05:51:01.489Z,1023.35
2023-05-25T05:52:02.259Z,1023.4
2023-05-25T05:53:01.239Z,1023.38
2023-05-25T05:54:01.053Z,1023.34
2023-05-25T05:55:01.039Z,1023.41
2023-05-25T05:56:01.529Z,1023.42
2023-05-25T05:57:01.893Z,1023.44
2023-05-25T05:58:01.446Z,1023.38
2023-05-25T05:59:01.204Z,1023.4
2023-05-25T06:00:01.026Z,1023.35
2023-05-25T06:01:01.629Z,1023.34
2023-05-25T06:02:01.753Z,1023.37
2023-05-25T06:03:01.774Z,1023.39
2023-05-25T06:04:02.102Z,1023.41
2023-05-25T06:05:01.104Z,1023.39
2023-05-25T06:06:01.778Z,1023.42
2023-05-25T06:07:01.491Z,1023.41
2023-05-25T06:08:01.777Z,1023.46
2023-05-25T06:09:01.111Z,1023.42
2023-05-25T06:10:01.186Z,1023.43
2023-05-25T06:11:01.945Z,1023.51
2023-05-25T06:12:01.712Z,1023.51
2023-05-25T06:13:01.412Z,1023.54
2023-05-25T06:14:01.098Z,1023.57
2023-05-25T06:15:01.563Z,1023.57
2023-05-25T06:16:01.790Z,1023.59
2023-05-25T06:17:01.618Z,1023.61
2023-05-25T06:18:01.493Z,1023.57
2023-05-25T06:19:01.101Z,1023.63
2023-05-25T06:20:01.107Z,1023.61
2023-05-25T06:21:01.518Z,1023.6
2023-05-25T06:22:00.914Z,1023.6
2023-05-25T06:23:00.702Z,1023.64
2023-05-25T06:24:00.516Z,1023.64
2023-05-25T06:25:01.367Z,1023.61
2023-05-25T06:26:01.134Z,1023.62
2023-05-25T06:27:01.257Z,1023.57
2023-05-25T06:28:01.946Z,1023.59
2023-05-25T06:29:01.050Z,1023.62
2023-05-25T06:30:01.049Z,1023.59
2023-05-25T06:31:01.089Z,1023.62
2023-05-25T06:32:01.100Z,1023.6
2023-05-25T06:33:01.104Z,1023.65
2023-05-25T06:34:01.066Z,1023.68
2023-05-25T06:35:01.454Z,1023.67
2023-05-25T06:36:01.107Z,1023.63
2023-05-25T06:37:01.097Z,1023.63
2023-05-25T06:38:01.094Z,1023.62
2023-05-25T06:39:01.708Z,1023.67
2023-05-25T06:40:04.117Z,1023.65
2023-05-25T06:41:01.689Z,1023.64
2023-05-25T06:42:01.340Z,1023.6
2023-05-25T06:43:02.053Z,1023.64
2023-05-25T06:44:02.688Z,1023.65
2023-05-25T06:45:08.130Z,1023.64
2023-05-25T06:46:00.805Z,1023.69
2023-05-25T06:47:01.149Z,1023.7
2023-05-25T06:48:00.954Z,1023.71
2023-05-25T06:49:00.746Z,1023.69
2023-05-25T06:50:09.989Z,1023.68
2023-05-25T06:51:01.577Z,1023.68
2023-05-25T06:52:01.769Z,1023.62
2023-05-25T06:53:01.487Z,1023.66
2023-05-25T06:54:02.201Z,1023.64
2023-05-25T06:55:14.178Z,1023.61
2023-05-25T06:56:00.839Z,1023.64
2023-05-25T06:57:00.574Z,1023.59
2023-05-25T06:58:00.300Z,1023.57
2023-05-25T06:59:00.050Z,1023.59
2023-05-25T06:59:59.706Z,1023.62
2023-05-25T07:01:02.984Z,1023.59
2023-05-25T07:02:01.069Z,1023.6
2023-05-25T07:03:01.077Z,1023.6
2023-05-25T07:04:01.068Z,1023.67
2023-05-25T07:05:01.062Z,1023.6
2023-05-25T07:06:00.857Z,1023.64
2023-05-25T07:07:01.094Z,1023.62
2023-05-25T07:08:01.104Z,1023.6
2023-05-25T07:09:01.108Z,1023.66
2023-05-25T07:10:01.117Z,1023.63
2023-05-25T07:11:01.236Z,1023.63
2023-05-25T07:12:01.119Z,1023.67
2023-05-25T07:13:01.122Z,1023.64
2023-05-25T07:14:01.016Z,1023.64
2023-05-25T07:15:01.062Z,1023.63
2023-05-25T07:16:01.312Z,1023.66
2023-05-25T07:17:01.256Z,1023.62
2023-05-25T07:18:01.516Z,1023.61
2023-05-25T07:19:01.750Z,1023.67
2023-05-25T07:20:01.161Z,1023.66
2023-05-25T07:21:02.240Z,1023.63
2023-05-25T07:22:01.782Z,1023.66
2023-05-25T07:23:01.909Z,1023.68
2023-05-25T07:24:01.392Z,1023.71
2023-05-25T07:25:01.087Z,1023.69
2023-05-25T07:26:02.475Z,1023.71
2023-05-25T07:27:02.333Z,1023.71
2023-05-25T07:28:01.138Z,1023.71
2023-05-25T07:29:01.165Z,1023.74
2023-05-25T07:30:01.143Z,1023.72
2023-05-25T07:31:02.746Z,1023.73
2023-05-25T07:32:01.122Z,1023.81
2023-05-25T07:33:01.155Z,1023.76
2023-05-25T07:34:01.197Z,1023.79
2023-05-25T07:35:01.523Z,1023.75
2023-05-25T07:36:01.147Z,1023.76
2023-05-25T07:37:01.168Z,1023.75
2023-05-25T07:38:01.192Z,1023.78
2023-05-25T07:39:02.152Z,1023.76
2023-05-25T07:40:01.911Z,1023.75
2023-05-25T07:41:01.734Z,1023.7
2023-05-25T07:42:01.390Z,1023.65
2023-05-25T07:43:02.508Z,1023.61
2023-05-25T07:44:02.734Z,1023.66
2023-05-25T07:45:01.218Z,1023.66
2023-05-25T07:46:01.964Z,1023.66
2023-05-25T07:47:00.670Z,1023.64
2023-05-25T07:48:00.353Z,1023.63
2023-05-25T07:49:00.052Z,1023.68
2023-05-25T07:49:59.635Z,1023.67
2023-05-25T07:51:01.407Z,1023.69
2023-05-25T07:52:01.101Z,1023.72
2023-05-25T07:53:01.073Z,1023.73
2023-05-25T07:54:01.083Z,1023.71
2023-05-25T07:55:01.149Z,1023.72
2023-05-25T07:56:01.033Z,1023.74
2023-05-25T07:57:01.493Z,1023.74
2023-05-25T07:58:02.163Z,1023.75
2023-05-25T07:59:01.134Z,1023.74
2023-05-25T08:00:01.149Z,1023.72
2023-05-25T08:01:01.763Z,1023.74
2023-05-25T08:02:01.448Z,1023.74
2023-05-25T08:03:01.295Z,1023.71
2023-05-25T08:04:01.182Z,1023.81
2023-05-25T08:05:01.625Z,1023.82
2023-05-25T08:06:01.321Z,1023.8
2023-05-25T08:07:01.433Z,1023.77
2023-05-25T08:08:01.083Z,1023.81
2023-05-25T08:09:01.203Z,1023.76
2023-05-25T08:10:01.260Z,1023.81
2023-05-25T08:11:01.834Z,1023.85
2023-05-25T08:12:23.941Z,1023.71
2023-05-25T08:13:01.485Z,1023.76
2023-05-25T08:14:01.504Z,1023.77
2023-05-25T08:15:01.123Z,1023.74
2023-05-25T08:16:03.456Z,1023.7
2023-05-25T08:17:02.094Z,1023.68
2023-05-25T08:18:01.414Z,1023.69
2023-05-25T08:19:01.110Z,1023.68
2023-05-25T08:20:01.131Z,1023.65
2023-05-25T08:21:04.669Z,1023.62
2023-05-25T08:22:01.358Z,1023.65
2023-05-25T08:23:01.572Z,1023.63
2023-05-25T08:24:01.478Z,1023.66
2023-05-25T08:25:01.351Z,1023.67
2023-05-25T08:26:20.427Z,1023.66
2023-05-25T08:27:01.085Z,1023.61
2023-05-25T08:28:01.031Z,1023.67
2023-05-25T08:29:01.046Z,1023.62
2023-05-25T08:30:01.017Z,1023.61
2023-05-25T08:31:10.162Z,1023.63
2023-05-25T08:32:01.800Z,1023.61
2023-05-25T08:33:00.943Z,1023.62
2023-05-25T08:34:01.897Z,1023.57
2023-05-25T08:35:01.735Z,1023.61
2023-05-25T08:36:12.599Z,1023.62
2023-05-25T08:37:01.427Z,1023.62
2023-05-25T08:38:01.079Z,1023.65
2023-05-25T08:39:01.111Z,1023.59
2023-05-25T08:40:01.079Z,1023.64
2023-05-25T08:41:15.829Z,1023.65
2023-05-25T08:42:02.533Z,1023.68
2023-05-25T08:43:01.702Z,1023.68
2023-05-25T08:44:01.094Z,1023.63
2023-05-25T08:45:01.096Z,1023.58
2023-05-25T08:46:01.285Z,1023.62
2023-05-25T08:47:01.020Z,1023.64
2023-05-25T08:48:01.147Z,1023.62
2023-05-25T08:49:00.771Z,1023.61
2023-05-25T08:50:01.160Z,1023.65
2023-05-25T08:51:01.893Z,1023.65
2023-05-25T08:52:01.432Z,1023.65
2023-05-25T08:53:01.059Z,1023.6
2023-05-25T08:54:01.207Z,1023.6
2023-05-25T08:55:01.059Z,1023.61
2023-05-25T08:56:01.031Z,1023.62
2023-05-25T08:57:01.069Z,1023.64
2023-05-25T08:58:01.034Z,1023.62
2023-05-25T08:59:01.016Z,1023.65
2023-05-25T09:00:01.116Z,1023.69
2023-05-25T09:01:01.222Z,1023.68
2023-05-25T09:02:01.115Z,1023.67
2023-05-25T09:03:01.230Z,1023.64
2023-05-25T09:04:01.236Z,1023.64
2023-05-25T09:05:02.506Z,1023.67
2023-05-25T09:06:01.171Z,1023.66
2023-05-25T09:07:09.623Z,1023.67
2023-05-25T09:08:01.762Z,1023.72
2023-05-25T09:09:01.521Z,1023.72
2023-05-25T09:10:01.143Z,1023.72
2023-05-25T09:11:03.854Z,1023.7
2023-05-25T09:12:01.079Z,1023.72
2023-05-25T09:13:12.772Z,1023.73
2023-05-25T09:14:01.156Z,1023.8
2023-05-25T09:15:01.114Z,1023.77
2023-05-25T09:16:01.144Z,1023.82
2023-05-25T09:17:01.501Z,1023.78
2023-05-25T09:18:01.548Z,1023.77
2023-05-25T09:19:01.134Z,1023.7
2023-05-25T09:20:01.170Z,1023.73
2023-05-25T09:21:01.071Z,1023.77
2023-05-25T09:22:14.093Z,1023.74
2023-05-25T09:23:01.054Z,1023.73
2023-05-25T09:24:01.152Z,1023.72
2023-05-25T09:25:01.087Z,1023.71
2023-05-25T09:26:01.104Z,1023.73
2023-05-25T09:27:01.218Z,1023.72
2023-05-25T09:28:10.183Z,1023.69
2023-05-25T09:29:01.078Z,1023.72
2023-05-25T09:30:01.123Z,1023.7
2023-05-25T09:31:01.046Z,1023.69
2023-05-25T09:32:01.103Z,1023.71
2023-05-25T09:33:01.138Z,1023.75
2023-05-25T09:34:01.561Z,1023.72
2023-05-25T09:35:01.844Z,1023.71
2023-05-25T09:36:01.193Z,1023.63
2023-05-25T09:37:01.515Z,1023.7
2023-05-25T09:38:01.336Z,1023.65
2023-05-25T09:39:01.941Z,1023.72
2023-05-25T09:40:01.731Z,1023.74
2023-05-25T09:41:02.512Z,1023.7
2023-05-25T09:42:02.509Z,1023.73
2023-05-25T09:43:01.131Z,1023.7
2023-05-25T09:44:10.518Z,1023.69
2023-05-25T09:45:01.812Z,1023.74
2023-05-25T09:46:00.580Z,1023.79
2023-05-25T09:47:00.280Z,1023.78
2023-05-25T09:48:00.044Z,1023.74
2023-05-25T09:48:59.773Z,1023.77
2023-05-25T09:50:02.443Z,1023.72
2023-05-25T09:51:01.517Z,1023.77
2023-05-25T09:52:01.152Z,1023.75
2023-05-25T09:53:01.038Z,1023.79
2023-05-25T09:54:01.061Z,1023.72
2023-05-25T09:55:01.048Z,1023.76
2023-05-25T09:56:01.913Z,1023.74
2023-05-25T09:57:00.844Z,1023.77
2023-05-25T09:58:00.800Z,1023.76
2023-05-25T09:59:00.475Z,1023.77
2023-05-25T10:00:00.073Z,1023.72
2023-05-25T10:01:00.184Z,1023.71
2023-05-25T10:02:04.858Z,1023.71
2023-05-25T10:03:01.704Z,1023.69
2023-05-25T10:04:04.739Z,1023.75
2023-05-25T10:05:01.592Z,1023.71
2023-05-25T10:06:01.192Z,1023.73
2023-05-25T10:07:07.906Z,1023.72
2023-05-25T10:08:01.559Z,1023.67
2023-05-25T10:09:00.527Z,1023.71
2023-05-25T10:10:00.386Z,1023.76
2023-05-25T10:11:00.480Z,1023.75
2023-05-25T10:12:10.793Z,1023.77
2023-05-25T10:13:02.551Z,1023.74
2023-05-25T10:14:01.135Z,1023.75
2023-05-25T10:15:01.534Z,1023.77
2023-05-25T10:16:01.479Z,1023.71
2023-05-25T10:17:16.060Z,1023.7
2023-05-25T10:18:02.273Z,1023.71
2023-05-25T10:19:01.122Z,1023.73
2023-05-25T10:20:01.251Z,1023.7
2023-05-25T10:21:01.643Z,1023.76
2023-05-25T10:22:01.179Z,1023.75
2023-05-25T10:23:01.148Z,1023.78
2023-05-25T10:24:01.341Z,1023.79
2023-05-25T10:25:01.064Z,1023.76
2023-05-25T10:26:00.683Z,1023.81
2023-05-25T10:27:03.237Z,1023.79
2023-05-25T10:28:01.564Z,1023.8
2023-05-25T10:29:01.288Z,1023.79
2023-05-25T10:30:01.470Z,1023.84
2023-05-25T10:31:01.124Z,1023.79
2023-05-25T10:32:01.132Z,1023.83
2023-05-25T10:33:01.426Z,1023.82
2023-05-25T10:34:01.664Z,1023.82
2023-05-25T10:35:01.465Z,1023.83
2023-05-25T10:36:10.147Z,1023.79
2023-05-25T10:37:01.477Z,1023.83
2023-05-25T10:38:01.136Z,1023.77
2023-05-25T10:39:01.142Z,1023.83
2023-05-25T10:40:03.276Z,1023.78
2023-05-25T10:41:01.850Z,1023.79
2023-05-25T10:42:02.068Z,1023.81
2023-05-25T10:43:01.056Z,1023.76
2023-05-25T10:44:00.985Z,1023.8
2023-05-25T10:45:00.779Z,1023.77
2023-05-25T10:46:00.696Z,1023.79
2023-05-25T10:47:00.451Z,1023.76
2023-05-25T10:48:00.224Z,1023.74
2023-05-25T10:48:59.944Z,1023.76
2023-05-25T10:49:59.796Z,1023.72
2023-05-25T10:51:01.814Z,1023.73
2023-05-25T10:52:01.652Z,1023.71
2023-05-25T10:53:01.345Z,1023.7
2023-05-25T10:54:02.205Z,1023.68
2023-05-25T10:55:02.576Z,1023.67
2023-05-25T10:56:01.921Z,1023.68
2023-05-25T10:57:01.052Z,1023.68
2023-05-25T10:58:01.457Z,1023.62
2023-05-25T10:59:01.560Z,1023.67
2023-05-25T11:00:01.104Z,1023.62
2023-05-25T11:01:01.968Z,1023.59
2023-05-25T11:02:02.714Z,1023.57
2023-05-25T11:03:02.023Z,1023.61
2023-05-25T11:04:02.157Z,1023.56
2023-05-25T11:05:01.493Z,1023.62
2023-05-25T11:06:01.113Z,1023.58
2023-05-25T11:07:01.653Z,1023.6
2023-05-25T11:08:01.422Z,1023.61
2023-05-25T11:09:01.047Z,1023.6
2023-05-25T11:10:01.061Z,1023.61
2023-05-25T11:11:01.793Z,1023.56
2023-05-25T11:12:00.516Z,1023.53
2023-05-25T11:13:00.213Z,1023.57
2023-05-25T11:13:59.814Z,1023.5
2023-05-25T11:15:01.450Z,1023.51
2023-05-25T11:16:01.073Z,1023.51
2023-05-25T11:17:01.124Z,1023.51
2023-05-25T11:18:01.158Z,1023.5
2023-05-25T11:19:01.308Z,1023.44
2023-05-25T11:20:01.295Z,1023.43
2023-05-25T11:21:01.127Z,1023.41
2023-05-25T11:22:01.603Z,1023.42
2023-05-25T11:23:00.972Z,1023.44
2023-05-25T11:24:00.589Z,1023.41
2023-05-25T11:25:00.344Z,1023.45
2023-05-25T11:26:00.018Z,1023.47
2023-05-25T11:26:59.849Z,1023.43
2023-05-25T11:28:05.084Z,1023.42
2023-05-25T11:29:01.921Z,1023.44
2023-05-25T11:30:02.415Z,1023.44
2023-05-25T11:31:01.125Z,1023.43
2023-05-25T11:32:01.471Z,1023.38
2023-05-25T11:33:04.782Z,1023.41
2023-05-25T11:34:01.392Z,1023.4
2023-05-25T11:35:01.091Z,1023.4
2023-05-25T11:36:01.553Z,1023.43
2023-05-25T11:37:01.114Z,1023.43
2023-05-25T11:38:06.818Z,1023.42
2023-05-25T11:39:06.639Z,1023.41
2023-05-25T11:40:01.544Z,1023.44
2023-05-25T11:41:01.923Z,1023.41
2023-05-25T11:42:01.882Z,1023.39
2023-05-25T11:43:09.844Z,1023.3
2023-05-25T11:44:02.015Z,1023.33
2023-05-25T11:45:02.133Z,1023.32
2023-05-25T11:46:01.264Z,1023.27
2023-05-25T11:47:00.697Z,1023.26
2023-05-25T11:48:13.242Z,1023.29
2023-05-25T11:49:02.239Z,1023.24
2023-05-25T11:50:02.079Z,1023.23
2023-05-25T11:51:02.101Z,1023.23
2023-05-25T11:52:02.112Z,1023.25
2023-05-25T11:53:16.560Z,1023.2
2023-05-25T11:54:01.116Z,1023.18
2023-05-25T11:55:01.120Z,1023.2
2023-05-25T11:56:08.043Z,1023.22
2023-05-25T11:57:01.415Z,1023.19
2023-05-25T11:58:01.024Z,1023.28
2023-05-25T11:59:01.056Z,1023.21
2023-05-25T12:00:01.356Z,1023.19
2023-05-25T12:01:01.435Z,1023.19
2023-05-25T12:02:02.093Z,1023.21
2023-05-25T12:03:01.165Z,1023.22
2023-05-25T12:04:01.134Z,1023.21
2023-05-25T12:05:02.320Z,1023.21
2023-05-25T12:06:01.750Z,1023.21
2023-05-25T12:07:01.427Z,1023.21
2023-05-25T12:08:01.102Z,1023.21